sensor_id;sensor_type;location;lat;lon;timestamp;P1;durP1;ratioP1;P2;durP2;ratioP2
29006;SDS011;16104;48.642;9.008;2022-10-16T01:02:14;2.17;;;1.30;;
29006;SDS011;16104;48.642;9.008;2022-10-16T01:07:12;2.85;;;1.20;;
29006;SDS011;16104;48.642;9.008;2022-10-16T01:12:55;3.20;;;0.98;;
29006;SDS011;16104;48.642;9.008;2022-10-16T02:03:25;2.15;;;0.80;;
29006;SDS011;16104;48.642;9.008;2022-10-16T02:08:21;0.85;;;0.82;;
29006;SDS011;16104;48.642;9.008;2022-10-16T02:13:21;1.25;;;0.85;;
29006;SDS011;16104;48.642;9.008;2022-10-16T03:04:19;3.28;;;1.20;;
29006;SDS011;16104;48.642;9.008;2022-10-16T03:09:14;2.72;;;0.93;;
29006;SDS011;16104;48.642;9.008;2022-10-16T03:14:10;2.00;;;0.80;;
29006;SDS011;16104;48.642;9.008;2022-10-16T03:19:05;2.67;;;1.10;;
29006;SDS011;16104;48.642;9.008;2022-10-16T03:24:01;2.03;;;1.08;;
29006;SDS011;16104;48.642;9.008;2022-10-16T03:28:56;1.40;;;1.05;;
29006;SDS011;16104;48.642;9.008;2022-10-16T03:33:52;3.33;;;1.10;;
29006;SDS011;16104;48.642;9.008;2022-10-16T03:38:47;2.75;;;0.98;;
29006;SDS011;16104;48.642;9.008;2022-10-16T03:43:43;1.35;;;1.20;;
29006;SDS011;16104;48.642;9.008;2022-10-16T03:48:39;4.97;;;1.20;;
29006;SDS011;16104;48.642;9.008;2022-10-16T03:53:34;2.50;;;0.90;;
29006;SDS011;16104;48.642;9.008;2022-10-16T03:58:30;2.05;;;1.20;;
29006;SDS011;16104;48.642;9.008;2022-10-16T04:03:26;2.53;;;1.50;;
29006;SDS011;16104;48.642;9.008;2022-10-16T04:08:21;1.35;;;1.10;;
29006;SDS011;16104;48.642;9.008;2022-10-16T04:13:17;3.95;;;1.30;;
29006;SDS011;16104;48.642;9.008;2022-10-16T04:18:12;1.67;;;1.00;;
29006;SDS011;16104;48.642;9.008;2022-10-16T04:23:08;2.28;;;1.20;;
29006;SDS011;16104;48.642;9.008;2022-10-16T04:28:03;2.63;;;0.93;;
29006;SDS011;16104;48.642;9.008;2022-10-16T04:32:59;0.93;;;0.82;;
29006;SDS011;16104;48.642;9.008;2022-10-16T04:37:56;1.05;;;1.00;;
29006;SDS011;16104;48.642;9.008;2022-10-16T04:42:53;2.45;;;1.00;;
29006;SDS011;16104;48.642;9.008;2022-10-16T04:47:48;3.08;;;0.90;;
29006;SDS011;16104;48.642;9.008;2022-10-16T04:52:44;3.53;;;1.00;;
29006;SDS011;16104;48.642;9.008;2022-10-16T04:57:40;3.95;;;1.00;;
29006;SDS011;16104;48.642;9.008;2022-10-16T05:02:36;3.05;;;1.30;;
29006;SDS011;16104;48.642;9.008;2022-10-16T05:07:31;2.70;;;0.93;;
29006;SDS011;16104;48.642;9.008;2022-10-16T05:12:27;2.35;;;1.30;;
29006;SDS011;16104;48.642;9.008;2022-10-16T05:17:22;1.50;;;1.40;;
29006;SDS011;16104;48.642;9.008;2022-10-16T05:22:18;3.05;;;1.30;;
29006;SDS011;16104;48.642;9.008;2022-10-16T05:27:13;1.45;;;1.15;;
29006;SDS011;16104;48.642;9.008;2022-10-16T05:32:14;3.97;;;1.08;;
29006;SDS011;16104;48.642;9.008;2022-10-16T05:37:11;4.35;;;1.20;;
29006;SDS011;16104;48.642;9.008;2022-10-16T05:42:07;3.22;;;1.23;;
29006;SDS011;16104;48.642;9.008;2022-10-16T05:47:02;1.10;;;1.00;;
29006;SDS011;16104;48.642;9.008;2022-10-16T05:51:58;3.10;;;1.23;;
29006;SDS011;16104;48.642;9.008;2022-10-16T05:56:54;1.48;;;1.00;;
29006;SDS011;16104;48.642;9.008;2022-10-16T06:01:49;2.90;;;1.08;;
29006;SDS011;16104;48.642;9.008;2022-10-16T06:06:44;3.97;;;1.20;;
29006;SDS011;16104;48.642;9.008;2022-10-16T06:11:40;1.00;;;0.98;;
29006;SDS011;16104;48.642;9.008;2022-10-16T06:16:36;1.80;;;1.42;;
29006;SDS011;16104;48.642;9.008;2022-10-16T06:21:32;1.98;;;1.30;;
29006;SDS011;16104;48.642;9.008;2022-10-16T06:26:29;2.53;;;1.33;;
29006;SDS011;16104;48.642;9.008;2022-10-16T06:31:25;2.25;;;1.20;;
29006;SDS011;16104;48.642;9.008;2022-10-16T06:36:24;1.38;;;1.27;;
29006;SDS011;16104;48.642;9.008;2022-10-16T06:41:21;2.15;;;1.20;;
29006;SDS011;16104;48.642;9.008;2022-10-16T06:46:19;4.80;;;1.30;;
29006;SDS011;16104;48.642;9.008;2022-10-16T06:51:20;3.67;;;1.40;;
29006;SDS011;16104;48.642;9.008;2022-10-16T06:56:24;19.15;;;10.75;;
29006;SDS011;16104;48.642;9.008;2022-10-16T07:01:22;4.13;;;2.45;;
29006;SDS011;16104;48.642;9.008;2022-10-16T07:06:19;5.38;;;2.47;;
29006;SDS011;16104;48.642;9.008;2022-10-16T07:11:17;5.05;;;1.60;;
29006;SDS011;16104;48.642;9.008;2022-10-16T07:16:15;1.58;;;1.33;;
29006;SDS011;16104;48.642;9.008;2022-10-16T07:21:13;4.50;;;1.02;;
29006;SDS011;16104;48.642;9.008;2022-10-16T07:26:14;2.42;;;1.25;;
29006;SDS011;16104;48.642;9.008;2022-10-16T07:31:11;2.95;;;1.27;;
29006;SDS011;16104;48.642;9.008;2022-10-16T07:36:09;4.40;;;1.20;;
29006;SDS011;16104;48.642;9.008;2022-10-16T07:41:09;1.45;;;1.25;;
29006;SDS011;16104;48.642;9.008;2022-10-16T07:46:06;3.63;;;1.50;;
29006;SDS011;16104;48.642;9.008;2022-10-16T07:51:05;2.45;;;1.30;;
29006;SDS011;16104;48.642;9.008;2022-10-16T07:56:02;2.95;;;1.50;;
29006;SDS011;16104;48.642;9.008;2022-10-16T08:01:03;1.60;;;1.27;;
29006;SDS011;16104;48.642;9.008;2022-10-16T08:06:01;3.97;;;1.38;;
29006;SDS011;16104;48.642;9.008;2022-10-16T08:10:58;4.88;;;1.50;;
29006;SDS011;16104;48.642;9.008;2022-10-16T08:15:54;3.58;;;1.20;;
29006;SDS011;16104;48.642;9.008;2022-10-16T08:20:56;2.72;;;1.20;;
29006;SDS011;16104;48.642;9.008;2022-10-16T08:25:53;2.28;;;1.55;;
29006;SDS011;16104;48.642;9.008;2022-10-16T08:30:50;1.48;;;1.20;;
29006;SDS011;16104;48.642;9.008;2022-10-16T08:35:52;1.75;;;1.20;;
29006;SDS011;16104;48.642;9.008;2022-10-16T08:40:48;4.25;;;1.60;;
29006;SDS011;16104;48.642;9.008;2022-10-16T08:45:48;1.75;;;1.40;;
29006;SDS011;16104;48.642;9.008;2022-10-16T08:50:54;3.08;;;1.27;;
29006;SDS011;16104;48.642;9.008;2022-10-16T08:55:50;1.30;;;1.20;;
29006;SDS011;16104;48.642;9.008;2022-10-16T09:00:48;1.70;;;1.30;;
29006;SDS011;16104;48.642;9.008;2022-10-16T09:05:57;2.83;;;1.20;;
29006;SDS011;16104;48.642;9.008;2022-10-16T09:16:37;4.78;;;1.40;;
29006;SDS011;16104;48.642;9.008;2022-10-16T09:21:40;3.20;;;1.30;;
29006;SDS011;16104;48.642;9.008;2022-10-16T09:26:38;6.78;;;1.80;;
29006;SDS011;16104;48.642;9.008;2022-10-16T09:31:35;3.78;;;1.60;;
29006;SDS011;16104;48.642;9.008;2022-10-16T09:36:49;2.65;;;1.30;;
29006;SDS011;16104;48.642;9.008;2022-10-16T09:41:46;1.40;;;1.00;;
29006;SDS011;16104;48.642;9.008;2022-10-16T09:46:42;3.08;;;1.02;;
29006;SDS011;16104;48.642;9.008;2022-10-16T09:51:37;1.48;;;1.38;;
29006;SDS011;16104;48.642;9.008;2022-10-16T09:56:33;3.25;;;1.13;;
29006;SDS011;16104;48.642;9.008;2022-10-16T10:01:35;3.05;;;1.00;;
29006;SDS011;16104;48.642;9.008;2022-10-16T10:06:34;5.22;;;1.52;;
29006;SDS011;16104;48.642;9.008;2022-10-16T10:16:35;3.75;;;1.20;;
29006;SDS011;16104;48.642;9.008;2022-10-16T10:21:32;2.35;;;1.05;;
29006;SDS011;16104;48.642;9.008;2022-10-16T10:26:28;2.30;;;1.45;;
29006;SDS011;16104;48.642;9.008;2022-10-16T10:31:34;4.72;;;1.55;;
29006;SDS011;16104;48.642;9.008;2022-10-16T10:37:04;1.85;;;1.25;;
29006;SDS011;16104;48.642;9.008;2022-10-16T10:47:07;2.10;;;1.10;;
29006;SDS011;16104;48.642;9.008;2022-10-16T11:02:32;0.97;;;0.90;;
29006;SDS011;16104;48.642;9.008;2022-10-16T11:07:39;1.38;;;1.08;;
29006;SDS011;16104;48.642;9.008;2022-10-16T11:17:54;1.92;;;1.20;;
29006;SDS011;16104;48.642;9.008;2022-10-16T11:22:58;6.82;;;1.38;;
29006;SDS011;16104;48.642;9.008;2022-10-16T11:28:13;1.77;;;0.93;;
29006;SDS011;16104;48.642;9.008;2022-10-16T11:38:28;1.45;;;1.20;;
29006;SDS011;16104;48.642;9.008;2022-10-16T11:43:38;4.40;;;1.40;;
29006;SDS011;16104;48.642;9.008;2022-10-16T11:53:53;2.63;;;1.20;;
29006;SDS011;16104;48.642;9.008;2022-10-16T11:59:03;2.65;;;1.15;;
29006;SDS011;16104;48.642;9.008;2022-10-16T12:09:14;5.20;;;1.10;;
29006;SDS011;16104;48.642;9.008;2022-10-16T12:19:23;3.92;;;1.40;;
29006;SDS011;16104;48.642;9.008;2022-10-16T12:24:43;1.48;;;1.35;;
29006;SDS011;16104;48.642;9.008;2022-10-16T12:29:38;1.35;;;1.25;;
29006;SDS011;16104;48.642;9.008;2022-10-16T12:39:37;1.35;;;1.00;;
29006;SDS011;16104;48.642;9.008;2022-10-16T12:44:34;1.83;;;1.20;;
29006;SDS011;16104;48.642;9.008;2022-10-16T12:49:32;5.50;;;1.55;;
29006;SDS011;16104;48.642;9.008;2022-10-16T12:54:35;2.60;;;1.15;;
29006;SDS011;16104;48.642;9.008;2022-10-16T12:59:35;1.85;;;1.00;;
29006;SDS011;16104;48.642;9.008;2022-10-16T13:04:49;7.22;;;1.17;;
29006;SDS011;16104;48.642;9.008;2022-10-16T13:15:27;1.42;;;1.15;;
29006;SDS011;16104;48.642;9.008;2022-10-16T13:25:56;2.53;;;1.10;;
29006;SDS011;16104;48.642;9.008;2022-10-16T13:31:03;2.65;;;1.15;;
29006;SDS011;16104;48.642;9.008;2022-10-16T13:36:00;1.08;;;0.90;;
29006;SDS011;16104;48.642;9.008;2022-10-16T13:46:06;2.55;;;1.23;;
29006;SDS011;16104;48.642;9.008;2022-10-16T13:56:07;1.33;;;0.97;;
29006;SDS011;16104;48.642;9.008;2022-10-16T14:01:43;2.72;;;1.17;;
29006;SDS011;16104;48.642;9.008;2022-10-16T14:06:42;1.23;;;1.00;;
29006;SDS011;16104;48.642;9.008;2022-10-16T14:11:48;3.20;;;1.40;;
29006;SDS011;16104;48.642;9.008;2022-10-16T14:16:47;3.17;;;1.67;;
29006;SDS011;16104;48.642;9.008;2022-10-16T14:21:43;2.08;;;1.60;;
29006;SDS011;16104;48.642;9.008;2022-10-16T14:26:43;3.42;;;1.40;;
29006;SDS011;16104;48.642;9.008;2022-10-16T14:31:39;3.13;;;1.30;;
29006;SDS011;16104;48.642;9.008;2022-10-16T14:36:35;7.38;;;1.45;;
29006;SDS011;16104;48.642;9.008;2022-10-16T14:41:31;4.63;;;1.23;;
29006;SDS011;16104;48.642;9.008;2022-10-16T14:46:36;3.47;;;1.48;;
29006;SDS011;16104;48.642;9.008;2022-10-16T14:51:33;1.20;;;1.10;;
29006;SDS011;16104;48.642;9.008;2022-10-16T14:56:30;3.58;;;1.52;;
29006;SDS011;16104;48.642;9.008;2022-10-16T15:01:30;1.65;;;1.50;;
29006;SDS011;16104;48.642;9.008;2022-10-16T15:06:26;1.92;;;1.40;;
29006;SDS011;16104;48.642;9.008;2022-10-16T15:11:21;2.60;;;1.40;;
29006;SDS011;16104;48.642;9.008;2022-10-16T15:16:17;1.35;;;1.23;;
29006;SDS011;16104;48.642;9.008;2022-10-16T15:21:45;3.47;;;1.10;;
29006;SDS011;16104;48.642;9.008;2022-10-16T15:26:35;2.95;;;1.30;;
29006;SDS011;16104;48.642;9.008;2022-10-16T15:31:30;2.08;;;1.20;;
29006;SDS011;16104;48.642;9.008;2022-10-16T15:36:32;3.08;;;1.20;;
29006;SDS011;16104;48.642;9.008;2022-10-16T15:41:31;2.25;;;1.52;;
29006;SDS011;16104;48.642;9.008;2022-10-16T15:46:26;4.82;;;1.50;;
29006;SDS011;16104;48.642;9.008;2022-10-16T15:51:24;3.33;;;1.38;;
29006;SDS011;16104;48.642;9.008;2022-10-16T15:56:22;6.47;;;1.63;;
29006;SDS011;16104;48.642;9.008;2022-10-16T16:01:20;5.15;;;1.55;;
29006;SDS011;16104;48.642;9.008;2022-10-16T16:06:16;2.35;;;1.90;;
29006;SDS011;16104;48.642;9.008;2022-10-16T16:11:14;6.97;;;1.85;;
29006;SDS011;16104;48.642;9.008;2022-10-16T16:16:12;3.63;;;1.90;;
29006;SDS011;16104;48.642;9.008;2022-10-16T16:21:12;4.75;;;2.00;;
29006;SDS011;16104;48.642;9.008;2022-10-16T16:26:13;3.78;;;2.10;;
29006;SDS011;16104;48.642;9.008;2022-10-16T16:31:16;2.35;;;1.98;;
29006;SDS011;16104;48.642;9.008;2022-10-16T16:36:12;6.25;;;2.00;;
29006;SDS011;16104;48.642;9.008;2022-10-16T16:41:14;5.88;;;2.55;;
29006;SDS011;16104;48.642;9.008;2022-10-16T16:46:11;6.45;;;3.00;;
29006;SDS011;16104;48.642;9.008;2022-10-16T16:51:07;4.18;;;3.10;;
29006;SDS011;16104;48.642;9.008;2022-10-16T16:56:05;6.57;;;2.72;;
29006;SDS011;16104;48.642;9.008;2022-10-16T17:01:01;4.53;;;2.90;;
29006;SDS011;16104;48.642;9.008;2022-10-16T17:10:54;4.40;;;2.90;;
29006;SDS011;16104;48.642;9.008;2022-10-16T17:15:50;5.13;;;2.50;;
29006;SDS011;16104;48.642;9.008;2022-10-16T17:20:47;6.70;;;2.70;;
29006;SDS011;16104;48.642;9.008;2022-10-16T17:25:43;4.88;;;2.72;;
29006;SDS011;16104;48.642;9.008;2022-10-16T17:30:40;3.50;;;2.45;;
29006;SDS011;16104;48.642;9.008;2022-10-16T17:35:36;4.18;;;3.10;;
29006;SDS011;16104;48.642;9.008;2022-10-16T17:40:33;5.25;;;3.50;;
29006;SDS011;16104;48.642;9.008;2022-10-16T17:45:29;9.77;;;4.88;;
29006;SDS011;16104;48.642;9.008;2022-10-16T17:50:25;6.30;;;4.30;;
29006;SDS011;16104;48.642;9.008;2022-10-16T17:55:21;8.00;;;3.17;;
29006;SDS011;16104;48.642;9.008;2022-10-16T18:00:16;9.35;;;2.50;;
29006;SDS011;16104;48.642;9.008;2022-10-16T18:05:12;5.38;;;2.40;;
29006;SDS011;16104;48.642;9.008;2022-10-16T18:10:08;6.72;;;2.67;;
29006;SDS011;16104;48.642;9.008;2022-10-16T18:15:05;4.07;;;2.20;;
29006;SDS011;16104;48.642;9.008;2022-10-16T18:20:01;2.42;;;1.98;;
29006;SDS011;16104;48.642;9.008;2022-10-16T18:24:56;2.40;;;2.03;;
29006;SDS011;16104;48.642;9.008;2022-10-16T18:29:52;9.23;;;3.92;;
29006;SDS011;16104;48.642;9.008;2022-10-16T18:34:51;4.80;;;3.33;;
29006;SDS011;16104;48.642;9.008;2022-10-16T18:39:48;7.93;;;4.72;;
29006;SDS011;16104;48.642;9.008;2022-10-16T18:44:43;3.40;;;2.80;;
29006;SDS011;16104;48.642;9.008;2022-10-16T18:49:39;6.35;;;3.17;;
29006;SDS011;16104;48.642;9.008;2022-10-16T18:54:34;5.47;;;3.40;;
29006;SDS011;16104;48.642;9.008;2022-10-16T18:59:31;7.50;;;3.70;;
29006;SDS011;16104;48.642;9.008;2022-10-16T19:04:26;6.00;;;5.40;;
29006;SDS011;16104;48.642;9.008;2022-10-16T19:09:22;5.63;;;4.38;;
29006;SDS011;16104;48.642;9.008;2022-10-16T19:14:19;8.35;;;2.75;;
29006;SDS011;16104;48.642;9.008;2022-10-16T19:19:16;8.10;;;2.35;;
29006;SDS011;16104;48.642;9.008;2022-10-16T19:24:13;8.73;;;6.47;;
29006;SDS011;16104;48.642;9.008;2022-10-16T19:29:09;6.00;;;4.50;;
29006;SDS011;16104;48.642;9.008;2022-10-16T19:34:05;10.88;;;8.00;;
29006;SDS011;16104;48.642;9.008;2022-10-16T19:39:03;7.43;;;5.60;;
29006;SDS011;16104;48.642;9.008;2022-10-16T19:44:01;6.22;;;4.22;;
29006;SDS011;16104;48.642;9.008;2022-10-16T19:48:59;4.47;;;3.53;;
29006;SDS011;16104;48.642;9.008;2022-10-16T19:53:57;4.75;;;2.72;;
29006;SDS011;16104;48.642;9.008;2022-10-16T19:58:55;3.75;;;2.60;;
29006;SDS011;16104;48.642;9.008;2022-10-16T20:03:51;4.78;;;2.60;;
29006;SDS011;16104;48.642;9.008;2022-10-16T20:08:48;3.65;;;2.58;;
29006;SDS011;16104;48.642;9.008;2022-10-16T20:13:47;3.08;;;2.60;;
29006;SDS011;16104;48.642;9.008;2022-10-16T20:18:44;2.92;;;2.15;;
29006;SDS011;16104;48.642;9.008;2022-10-16T20:23:41;3.95;;;2.00;;
29006;SDS011;16104;48.642;9.008;2022-10-16T20:28:37;6.22;;;2.30;;
29006;SDS011;16104;48.642;9.008;2022-10-16T20:33:34;3.67;;;1.83;;
29006;SDS011;16104;48.642;9.008;2022-10-16T20:38:30;5.82;;;1.83;;
29006;SDS011;16104;48.642;9.008;2022-10-16T20:43:25;3.30;;;1.90;;
29006;SDS011;16104;48.642;9.008;2022-10-16T20:48:21;3.35;;;1.80;;
29006;SDS011;16104;48.642;9.008;2022-10-16T20:53:16;1.83;;;1.60;;
29006;SDS011;16104;48.642;9.008;2022-10-16T20:58:12;4.60;;;1.90;;
29006;SDS011;16104;48.642;9.008;2022-10-16T21:03:07;3.38;;;1.80;;
29006;SDS011;16104;48.642;9.008;2022-10-16T21:08:04;2.65;;;1.70;;
29006;SDS011;16104;48.642;9.008;2022-10-16T21:13:00;1.60;;;1.50;;
29006;SDS011;16104;48.642;9.008;2022-10-16T21:17:55;2.78;;;1.55;;
29006;SDS011;16104;48.642;9.008;2022-10-16T21:22:51;4.57;;;1.75;;
29006;SDS011;16104;48.642;9.008;2022-10-16T21:27:46;3.17;;;1.88;;
29006;SDS011;16104;48.642;9.008;2022-10-16T21:32:42;1.85;;;1.67;;
29006;SDS011;16104;48.642;9.008;2022-10-16T21:37:37;3.05;;;1.70;;
29006;SDS011;16104;48.642;9.008;2022-10-16T21:42:33;5.57;;;1.92;;
29006;SDS011;16104;48.642;9.008;2022-10-16T21:47:28;2.90;;;1.63;;
29006;SDS011;16104;48.642;9.008;2022-10-16T21:52:24;2.70;;;1.70;;
29006;SDS011;16104;48.642;9.008;2022-10-16T21:57:19;3.45;;;1.90;;
29006;SDS011;16104;48.642;9.008;2022-10-16T22:02:15;3.65;;;1.63;;
29006;SDS011;16104;48.642;9.008;2022-10-16T22:07:11;2.88;;;1.85;;
29006;SDS011;16104;48.642;9.008;2022-10-16T22:12:06;6.05;;;2.00;;
29006;SDS011;16104;48.642;9.008;2022-10-16T22:17:02;2.33;;;1.80;;
29006;SDS011;16104;48.642;9.008;2022-10-16T22:21:57;1.90;;;1.70;;
29006;SDS011;16104;48.642;9.008;2022-10-16T22:26:55;1.70;;;1.60;;
29006;SDS011;16104;48.642;9.008;2022-10-16T22:31:51;2.83;;;1.63;;
29006;SDS011;16104;48.642;9.008;2022-10-16T22:36:47;3.90;;;1.90;;
29006;SDS011;16104;48.642;9.008;2022-10-16T22:41:44;4.53;;;2.03;;
29006;SDS011;16104;48.642;9.008;2022-10-16T22:46:39;2.35;;;1.90;;
29006;SDS011;16104;48.642;9.008;2022-10-16T22:51:35;4.47;;;1.88;;
29006;SDS011;16104;48.642;9.008;2022-10-16T22:56:31;5.40;;;1.70;;
29006;SDS011;16104;48.642;9.008;2022-10-16T23:01:28;4.35;;;1.90;;
29006;SDS011;16104;48.642;9.008;2022-10-16T23:06:25;5.68;;;1.88;;
29006;SDS011;16104;48.642;9.008;2022-10-16T23:11:21;3.13;;;1.60;;
29006;SDS011;16104;48.642;9.008;2022-10-16T23:16:18;3.47;;;1.80;;
29006;SDS011;16104;48.642;9.008;2022-10-16T23:21:16;2.08;;;1.80;;
29006;SDS011;16104;48.642;9.008;2022-10-16T23:26:16;2.63;;;1.85;;
29006;SDS011;16104;48.642;9.008;2022-10-16T23:31:14;3.50;;;1.70;;
29006;SDS011;16104;48.642;9.008;2022-10-16T23:36:12;3.72;;;1.77;;
29006;SDS011;16104;48.642;9.008;2022-10-16T23:41:09;4.03;;;2.00;;
29006;SDS011;16104;48.642;9.008;2022-10-16T23:46:06;2.75;;;1.77;;
29006;SDS011;16104;48.642;9.008;2022-10-16T23:51:03;1.83;;;1.70;;
29006;SDS011;16104;48.642;9.008;2022-10-16T23:55:59;3.03;;;1.80;;
